Terminal Aerodrome Forecast
Issued by NWS

Home | Current Version | Previous Version | Text Only | Print | Product List | Glossary Off
Versions: 1 2 3 4 5 6 7 8 9 10 11 12 13 14 15 16 17

000
FTUS43 KICT 150520
TAFHUT
TAF
KHUT 150520Z 1506/1606 16005KT P6SM SCT200
     FM151100 15004KT 4SM BR SCT003
     FM151300 16007KT P6SM SCT200
     FM151800 17013KT P6SM SCT040=

USA.gov is the U.S. government's official web portal to all federal, state and local government web resources and services.